Time;durP1;ratioP1;P1;durP2;ratioP2;P2;SDS_P1;SDS_P2;PMS_P1;PMS_P2;Temp;Humidity;BMP_temperature;BMP_pressure;BME280_temperature;BME280_humidity;BME280_pressure;Samples;Min_cycle;Max_cycle;Signal;HPM_P1;HPM_P2
2023/09/04 00:00:25;;;;;;;7.53;5.78;;;;;;;16.65;100.00;101528.13;5028554;28;20052;-75
2023/09/04 00:02:53;;;;;;;6.63;5.43;;;;;;;16.57;100.00;101528.50;5026789;28;20156;-74
2023/09/04 00:05:22;;;;;;;6.50;5.70;;;;;;;16.45;100.00;101527.34;5008849;28;20139;-77
2023/09/04 00:07:50;;;;;;;8.45;5.30;;;;;;;16.38;100.00;101528.59;5053333;28;20085;-76
2023/09/04 00:10:18;;;;;;;7.55;5.80;;;;;;;16.39;100.00;101530.34;5047995;28;20061;-75
2023/09/04 00:12:47;;;;;;;5.60;4.93;;;;;;;16.38;100.00;101535.75;5025833;28;20103;-76
2023/09/04 00:15:15;;;;;;;6.95;6.10;;;;;;;16.37;100.00;101534.06;5041424;28;20056;-76
2023/09/04 00:17:48;;;;;;;6.40;5.65;;;;;;;16.39;100.00;101537.50;5028265;28;20044;-75
2023/09/04 00:20:17;;;;;;;6.78;5.43;;;;;;;16.29;100.00;101531.78;5047162;28;20297;-74
2023/09/04 00:22:47;;;;;;;7.13;5.80;;;;;;;16.34;100.00;101539.56;5032974;28;20066;-76
2023/09/04 00:25:16;;;;;;;7.47;5.65;;;;;;;16.27;100.00;101533.66;5048041;28;20109;-76
2023/09/04 00:27:44;;;;;;;6.45;5.82;;;;;;;16.28;100.00;101540.75;5037808;28;20048;-74
2023/09/04 00:30:14;;;;;;;8.00;6.05;;;;;;;16.27;100.00;101541.69;5050188;28;20043;-75
2023/09/04 00:32:44;;;;;;;7.30;5.35;;;;;;;16.19;100.00;101529.69;5045996;28;20517;-76
2023/09/04 00:35:13;;;;;;;7.53;5.80;;;;;;;16.12;100.00;101531.78;5049353;28;20044;-77
2023/09/04 00:37:42;;;;;;;7.03;5.93;;;;;;;16.07;100.00;101539.16;5054034;28;20046;-74
2023/09/04 00:40:13;;;;;;;6.75;6.03;;;;;;;16.05;100.00;101536.59;5045769;28;20068;-77
2023/09/04 00:42:41;;;;;;;8.45;6.30;;;;;;;15.99;100.00;101538.72;5052618;28;20045;-75
2023/09/04 00:45:11;;;;;;;7.97;6.53;;;;;;;15.83;100.00;101519.94;5042068;28;20108;-75
2023/09/04 00:47:40;;;;;;;;;;;;;;;15.85;100.00;101533.22;5055797;28;20101;-75
2023/09/04 00:50:10;;;;;;;8.32;6.10;;;;;;;15.79;100.00;101529.03;5063603;28;19970;-80
2023/09/04 00:52:38;;;;;;;7.20;6.50;;;;;;;15.86;100.00;101532.28;5041712;28;20041;-75
2023/09/04 00:55:08;;;;;;;7.45;6.25;;;;;;;15.82;100.00;101523.56;5048303;28;20481;-75
2023/09/04 00:57:39;;;;;;;11.52;6.38;;;;;;;15.84;100.00;101528.81;5021822;28;20043;-75
2023/09/04 01:00:12;;;;;;;6.55;5.93;;;;;;;15.73;100.00;101508.88;5033892;28;20053;-75
2023/09/04 01:02:41;;;;;;;8.18;6.78;;;;;;;15.82;100.00;101520.00;5030279;28;20052;-75
2023/09/04 01:05:09;;;;;;;8.18;6.88;;;;;;;15.71;100.00;101509.88;5034738;28;20079;-75
2023/09/04 01:07:43;;;;;;;7.45;6.75;;;;;;;15.63;100.00;101510.25;5056881;28;20069;-76
2023/09/04 01:10:13;;;;;;;7.50;6.40;;;;;;;15.63;100.00;101515.59;5035229;28;20127;-76
2023/09/04 01:12:51;;;;;;;8.00;6.73;;;;;;;15.58;100.00;101512.31;5047564;28;20040;-76
2023/09/04 01:15:19;;;;;;;7.22;6.53;;;;;;;15.54;100.00;101521.38;5047502;28;20052;-75
2023/09/04 01:17:49;;;;;;;7.57;6.70;;;;;;;15.47;100.00;101505.72;5021464;28;20045;-76
2023/09/04 01:20:25;;;;;;;7.50;6.70;;;;;;;15.46;100.00;101518.19;5029877;28;20052;-75
2023/09/04 01:22:53;;;;;;;9.73;6.55;;;;;;;15.44;100.00;101517.41;5052866;28;20143;-75
2023/09/04 01:25:22;;;;;;;9.57;6.57;;;;;;;15.43;100.00;101507.69;5043182;28;20044;-75
2023/09/04 01:27:56;;;;;;;8.45;6.63;;;;;;;15.37;100.00;101511.53;5034155;28;20053;-75
2023/09/04 01:30:33;;;;;;;8.75;7.70;;;;;;;15.34;100.00;101516.16;5035451;28;20048;-76
2023/09/04 01:33:05;;;;;;;7.80;6.75;;;;;;;15.29;100.00;101513.69;5029837;28;20135;-75
2023/09/04 01:35:36;;;;;;;7.38;6.68;;;;;;;15.25;100.00;101512.13;5039033;28;20148;-76
2023/09/04 01:38:05;;;;;;;8.13;7.15;;;;;;;15.19;100.00;101501.75;5040979;28;20044;-75
2023/09/04 01:40:33;;;;;;;7.75;6.40;;;;;;;15.07;100.00;101475.66;5057812;28;20512;-75
2023/09/04 01:43:01;;;;;;;7.90;6.90;;;;;;;15.24;100.00;101496.19;5031467;28;20641;-75
2023/09/04 01:45:29;;;;;;;9.35;7.22;;;;;;;15.12;100.00;101481.63;5061620;28;20036;-75
2023/09/04 01:47:58;;;;;;;7.63;6.82;;;;;;;15.23;100.00;101499.81;5020271;28;20064;-75
2023/09/04 01:50:26;;;;;;;7.47;6.57;;;;;;;15.24;100.00;101509.53;5031187;28;20102;-76
2023/09/04 01:52:56;;;;;;;7.57;6.40;;;;;;;15.23;100.00;101511.34;5032805;28;20098;-75
2023/09/04 01:55:23;;;;;;;10.20;7.65;;;;;;;15.24;100.00;101506.88;5046444;28;20679;-75
2023/09/04 01:57:52;;;;;;;8.38;6.70;;;;;;;15.21;100.00;101504.34;5040957;28;20048;-77
2023/09/04 02:00:19;;;;;;;9.55;6.35;;;;;;;15.26;100.00;101511.19;5066570;28;20032;-75
2023/09/04 02:02:47;;;;;;;9.88;7.30;;;;;;;15.22;100.00;101506.06;5062420;28;20049;-75
2023/09/04 02:05:15;;;;;;;8.30;6.78;;;;;;;15.12;100.00;101488.75;5043218;28;20041;-75
2023/09/04 02:07:43;;;;;;;10.13;7.28;;;;;;;15.17;100.00;101502.75;5059403;28;20139;-75
2023/09/04 02:10:13;;;;;;;7.13;6.45;;;;;;;15.17;100.00;101500.94;5040933;28;20049;-75
2023/09/04 02:12:41;;;;;;;9.05;7.05;;;;;;;15.21;100.00;101501.69;5053736;28;20133;-76
2023/09/04 02:15:10;;;;;;;7.53;6.50;;;;;;;15.07;100.00;101484.53;5063911;28;20523;-75
2023/09/04 02:17:38;;;;;;;9.23;6.50;;;;;;;15.20;100.00;101500.81;5056617;28;20056;-75
2023/09/04 02:20:10;;;;;;;7.13;6.43;;;;;;;15.21;100.00;101501.69;5043535;28;20056;-76
2023/09/04 02:22:38;;;;;;;7.20;6.47;;;;;;;15.20;100.00;101497.28;5043893;28;20053;-76
2023/09/04 02:25:08;;;;;;;7.13;6.38;;;;;;;15.18;100.00;101492.00;5046005;28;21409;-77
2023/09/04 02:27:37;;;;;;;7.10;6.40;;;;;;;15.18;100.00;101499.16;5041793;28;20275;-76
2023/09/04 02:30:09;;;;;;;;;;;;;;;15.15;100.00;101489.50;5042805;28;20047;-76
2023/09/04 02:32:36;;;;;;;7.85;6.47;;;;;;;15.08;100.00;101488.94;5059690;28;19935;-76
2023/09/04 02:35:06;;;;;;;6.93;6.07;;;;;;;15.08;100.00;101493.41;5036570;28;20048;-75
2023/09/04 02:37:34;;;;;;;6.72;6.03;;;;;;;15.07;100.00;101491.69;5051124;28;20109;-76
2023/09/04 02:40:05;;;;;;;6.80;6.13;;;;;;;15.06;100.00;101500.63;5055294;28;20040;-75
2023/09/04 02:42:34;;;;;;;7.55;6.50;;;;;;;15.07;100.00;101491.69;5038457;28;20061;-76
2023/09/04 02:45:04;;;;;;;7.38;6.53;;;;;;;14.99;100.00;101476.03;5046861;28;20044;-76
2023/09/04 02:47:34;;;;;;;9.80;6.40;;;;;;;15.08;100.00;101494.28;5041056;28;20057;-76
2023/09/04 02:50:02;;;;;;;7.45;6.45;;;;;;;15.13;100.00;101491.38;5050889;28;20123;-77
2023/09/04 02:52:31;;;;;;;11.88;6.72;;;;;;;15.05;100.00;101485.53;5025788;28;20135;-76
2023/09/04 02:55:00;;;;;;;7.75;6.38;;;;;;;15.08;100.00;101493.41;5056307;28;20857;-77
2023/09/04 02:57:30;;;;;;;7.30;6.30;;;;;;;15.04;100.00;101498.03;5055720;28;20048;-76
2023/09/04 02:59:59;;;;;;;;;;;;;;;15.00;100.00;101507.09;5025541;28;20040;-74
2023/09/04 03:02:28;;;;;;;8.35;6.47;;;;;;;14.96;100.00;101499.31;5060073;28;19920;-76
2023/09/04 03:04:57;;;;;;;8.47;6.27;;;;;;;14.88;100.00;101501.50;5064205;28;20103;-76
2023/09/04 03:07:28;;;;;;;7.43;6.63;;;;;;;14.78;100.00;101503.72;5074223;28;20768;-76
2023/09/04 03:09:57;;;;;;;8.93;7.45;;;;;;;14.73;100.00;101513.75;5055258;28;20365;-77
2023/09/04 03:12:27;;;;;;;7.93;6.93;;;;;;;14.73;100.00;101508.41;5063723;28;20040;-77
2023/09/04 03:14:58;;;;;;;9.63;6.80;;;;;;;14.64;100.00;101504.34;5044095;28;20077;-76
2023/09/04 03:17:29;;;;;;;10.68;7.72;;;;;;;14.55;100.00;101515.44;5044138;28;20049;-75
2023/09/04 03:19:59;;;;;;;9.40;7.20;;;;;;;14.49;100.00;101514.84;5055271;28;20076;-76
2023/09/04 03:22:27;;;;;;;10.23;8.05;;;;;;;14.43;100.00;101510.69;5058217;28;20055;-74
2023/09/04 03:24:56;;;;;;;8.88;7.68;;;;;;;14.36;100.00;101504.72;5038738;28;20047;-75
2023/09/04 03:27:28;;;;;;;8.00;7.03;;;;;;;14.25;100.00;101488.34;5036246;28;20044;-75
2023/09/04 03:29:57;;;;;;;9.68;7.70;;;;;;;14.35;100.00;101507.44;5034788;28;20463;-75
2023/09/04 03:32:26;;;;;;;9.05;6.70;;;;;;;14.35;100.00;101508.31;5041535;28;20055;-77
2023/09/04 03:34:56;;;;;;;13.18;7.80;;;;;;;14.35;100.00;101497.66;5047868;28;20346;-75
2023/09/04 03:37:24;;;;;;;9.25;7.75;;;;;;;14.22;100.00;101480.50;5034495;28;20044;-76
2023/09/04 03:39:52;;;;;;;8.15;7.35;;;;;;;14.22;100.00;101485.81;5040010;28;20043;-75
2023/09/04 03:42:20;;;;;;;9.60;8.18;;;;;;;14.20;100.00;101485.03;5032393;28;20068;-75
2023/09/04 03:44:48;;;;;;;8.73;7.63;;;;;;;14.17;100.00;101471.84;5028612;28;20567;-75
2023/09/04 03:47:16;;;;;;;8.75;7.35;;;;;;;14.27;100.00;101494.47;5045009;28;20140;-76
2023/09/04 03:49:46;;;;;;;7.72;6.90;;;;;;;14.24;100.00;101499.06;5034972;28;20111;-76
2023/09/04 03:52:16;;;;;;;9.00;7.97;;;;;;;14.10;100.00;101480.19;5047294;28;20037;-75
2023/09/04 03:54:44;;;;;;;9.98;8.55;;;;;;;14.16;100.00;101502.09;5054080;28;20036;-75
2023/09/04 03:57:13;;;;;;;9.95;7.35;;;;;;;14.11;100.00;101484.56;5053905;28;20124;-76
2023/09/04 03:59:41;;;;;;;7.95;7.15;;;;;;;14.09;100.00;101484.63;5047351;28;20269;-75
2023/09/04 04:02:10;;;;;;;8.38;7.47;;;;;;;14.23;100.00;101487.56;5045995;28;20496;-76
2023/09/04 04:04:39;;;;;;;10.00;7.55;;;;;;;14.28;100.00;101496.22;5045181;28;20044;-76
2023/09/04 04:07:08;;;;;;;8.55;7.30;;;;;;;14.21;100.00;101489.41;5061463;28;20054;-76
2023/09/04 04:09:38;;;;;;;8.65;7.28;;;;;;;14.18;100.00;101489.53;5030145;28;20067;-76
2023/09/04 04:12:08;;;;;;;8.82;7.55;;;;;;;14.20;100.00;101493.00;5055768;28;20106;-75
2023/09/04 04:14:36;;;;;;;8.40;7.22;;;;;;;14.15;100.00;101487.03;5042355;28;20537;-76
2023/09/04 04:17:04;;;;;;;9.70;7.35;;;;;;;14.15;100.00;101495.03;5042772;28;20045;-75
2023/09/04 04:19:33;;;;;;;10.43;7.15;;;;;;;14.13;100.00;101499.56;5037885;28;20037;-77
2023/09/04 04:22:01;;;;;;;10.35;7.55;;;;;;;14.12;100.00;101500.50;5050740;28;20079;-75
2023/09/04 04:24:30;;;;;;;8.50;6.82;;;;;;;14.13;100.00;101507.56;5044110;28;20065;-76
2023/09/04 04:27:00;;;;;;;7.97;7.18;;;;;;;14.18;100.00;101510.00;5044334;28;20044;-76
2023/09/04 04:29:28;;;;;;;10.27;7.30;;;;;;;14.22;100.00;101507.13;5061905;28;20041;-76
2023/09/04 04:31:58;;;;;;;9.45;7.10;;;;;;;14.20;100.00;101502.81;5073734;28;20076;-74
2023/09/04 04:34:27;;;;;;;9.85;7.00;;;;;;;14.11;100.00;101490.78;5057601;28;20060;-76
2023/09/04 04:36:59;;;;;;;10.43;6.93;;;;;;;14.17;100.00;101511.78;5033475;28;20051;-74
2023/09/04 04:39:29;;;;;;;10.30;6.15;;;;;;;14.14;100.00;101511.94;5063363;28;20045;-77
2023/09/04 04:41:58;;;;;;;7.65;6.22;;;;;;;14.11;100.00;101509.41;5054792;28;20132;-76
2023/09/04 04:44:28;;;;;;;10.05;6.80;;;;;;;14.23;100.00;101523.97;5051843;28;20049;-75
2023/09/04 04:46:56;;;;;;;8.70;6.80;;;;;;;14.18;100.00;101521.50;5042107;28;20052;-75
2023/09/04 04:49:25;;;;;;;9.18;6.72;;;;;;;14.17;100.00;101529.56;5044872;28;20140;-76
2023/09/04 04:51:54;;;;;;;8.05;6.57;;;;;;;14.08;100.00;101514.88;5032557;28;20038;-75
2023/09/04 04:54:22;;;;;;;9.68;6.30;;;;;;;14.07;100.00;101517.59;5047026;28;20124;-75
2023/09/04 04:56:50;;;;;;;10.52;8.45;;;;;;;14.13;100.00;101523.53;5026945;28;20077;-76
2023/09/04 04:59:20;;;;;;;7.80;6.70;;;;;;;14.24;100.00;101537.25;5044184;28;20049;-76
2023/09/04 05:01:49;;;;;;;7.65;6.70;;;;;;;14.27;100.00;101539.78;5061686;28;20050;-75
2023/09/04 05:04:17;;;;;;;8.53;6.60;;;;;;;14.20;100.00;101530.31;5048340;28;20041;-75
2023/09/04 05:06:46;;;;;;;12.60;6.68;;;;;;;14.21;100.00;101529.38;5033224;28;20042;-74
2023/09/04 05:09:14;;;;;;;8.48;6.82;;;;;;;14.21;100.00;101523.19;5040723;28;21577;-76
2023/09/04 05:11:43;;;;;;;8.52;6.55;;;;;;;14.14;100.00;101506.63;5017607;28;20053;-75
2023/09/04 05:14:12;;;;;;;8.23;7.40;;;;;;;14.20;100.00;101514.31;5024190;28;20041;-76
2023/09/04 05:16:43;;;;;;;11.80;7.07;;;;;;;14.27;100.00;101529.13;5037209;28;20130;-76
2023/09/04 05:19:12;;;;;;;7.90;6.65;;;;;;;14.29;100.00;101529.91;5016371;28;20188;-75
2023/09/04 05:21:41;;;;;;;7.13;6.30;;;;;;;14.32;100.00;101527.09;5045061;28;20136;-76
2023/09/04 05:24:24;;;;;;;9.77;6.28;;;;;;;14.36;100.00;101528.69;5019601;28;20152;-76
2023/09/04 05:26:52;;;;;;;8.30;6.30;;;;;;;14.32;100.00;101518.28;5025906;28;20037;-76
2023/09/04 05:29:23;;;;;;;7.22;6.43;;;;;;;14.42;100.00;101530.25;5013932;28;20042;-77
2023/09/04 05:31:52;;;;;;;8.40;6.93;;;;;;;14.44;100.00;101531.06;5010310;28;20053;-76
2023/09/04 05:34:23;;;;;;;7.45;6.50;;;;;;;14.26;100.00;101497.22;5004020;28;20050;-77
2023/09/04 05:36:53;;;;;;;11.20;7.32;;;;;;;14.29;100.00;101503.28;5017019;28;20026;-75
2023/09/04 05:39:21;;;;;;;7.93;7.10;;;;;;;14.41;100.00;101525.00;5016995;28;20057;-77
2023/09/04 05:41:49;;;;;;;10.32;6.80;;;;;;;14.44;100.00;101528.41;5024600;28;20041;-77
2023/09/04 05:44:17;;;;;;;14.95;7.18;;;;;;;14.50;100.00;101529.91;5019033;28;20046;-75
2023/09/04 05:46:44;;;;;;;8.43;7.43;;;;;;;14.52;100.00;101533.38;5017307;28;20724;-77
2023/09/04 05:49:13;;;;;;;8.13;7.30;;;;;;;14.50;100.00;101527.25;5028157;28;20080;-77
2023/09/04 05:51:42;;;;;;;8.60;7.38;;;;;;;14.30;100.00;101494.34;5025092;28;20718;-75
2023/09/04 05:54:12;;;;;;;9.60;7.72;;;;;;;14.54;100.00;101528.84;5030000;28;20576;-76
2023/09/04 05:56:41;;;;;;;9.35;7.05;;;;;;;14.54;100.00;101526.19;5027960;28;20044;-76
2023/09/04 05:59:10;;;;;;;9.83;7.53;;;;;;;14.55;100.00;101530.56;5003451;28;20076;-76
2023/09/04 06:01:38;;;;;;;8.75;7.47;;;;;;;14.57;100.00;101531.38;5004723;28;20052;-74
2023/09/04 06:04:06;;;;;;;11.55;7.78;;;;;;;14.58;100.00;101515.31;5020042;28;20052;-76
2023/09/04 06:06:35;;;;;;;9.13;7.70;;;;;;;14.62;100.00;101511.59;5016032;28;20560;-74
2023/09/04 06:09:06;;;;;;;11.65;8.02;;;;;;;14.69;100.00;101518.34;5023578;28;20396;-75
2023/09/04 06:11:33;;;;;;;7.78;6.78;;;;;;;14.73;100.00;101506.59;5037607;28;20136;-75
2023/09/04 06:14:01;;;;;;;8.38;6.90;;;;;;;14.84;100.00;101521.22;5039854;28;20693;-78
2023/09/04 06:16:34;;;;;;;8.85;6.88;;;;;;;14.88;100.00;101523.69;5039447;28;20095;-76
2023/09/04 06:19:07;;;;;;;10.45;6.95;;;;;;;14.94;100.00;101525.22;5036985;28;20056;-76
2023/09/04 06:21:35;;;;;;;9.23;6.63;;;;;;;14.97;100.00;101509.91;5034333;28;20045;-75
2023/09/04 06:24:07;;;;;;;7.38;6.45;;;;;;;15.00;100.00;101508.91;5041554;28;20130;-75
2023/09/04 06:26:35;;;;;;;9.90;6.93;;;;;;;15.04;100.00;101514.03;5043566;28;20067;-76
2023/09/04 06:29:03;;;;;;;6.90;6.20;;;;;;;15.12;100.00;101515.44;5041885;28;20041;-76
2023/09/04 06:31:32;;;;;;;10.23;6.00;;;;;;;15.24;100.00;101512.22;5018006;28;20049;-75
2023/09/04 06:34:03;;;;;;;9.23;5.88;;;;;;;15.50;100.00;101518.94;5040832;28;20515;-77
2023/09/04 06:36:31;;;;;;;6.97;5.78;;;;;;;15.61;100.00;101522.81;5035530;28;20051;-76
2023/09/04 06:38:59;;;;;;;7.63;5.80;;;;;;;15.75;100.00;101522.13;5043307;28;20075;-76
2023/09/04 06:41:29;;;;;;;6.85;4.95;;;;;;;15.86;100.00;101525.13;5037637;28;20500;-75
2023/09/04 06:44:00;;;;;;;6.47;5.30;;;;;;;16.08;100.00;101530.22;5044162;28;20042;-75
2023/09/04 06:46:30;;;;;;;7.80;5.28;;;;;;;16.33;100.00;101530.69;5045983;28;20151;-75
2023/09/04 06:49:00;;;;;;;10.43;5.32;;;;;;;16.50;100.00;101521.75;5043242;28;20113;-76
2023/09/04 06:51:30;;;;;;;11.77;5.80;;;;;;;16.81;100.00;101526.34;5037546;28;20040;-75
2023/09/04 06:53:58;;;;;;;5.40;4.60;;;;;;;17.05;100.00;101519.63;5039374;28;20057;-75
2023/09/04 06:56:26;;;;;;;5.78;5.10;;;;;;;17.25;100.00;101506.94;5036170;28;20041;-76
2023/09/04 06:58:56;;;;;;;5.43;4.72;;;;;;;17.51;100.00;101512.50;5045651;28;20064;-76
2023/09/04 07:01:23;;;;;;;5.32;4.38;;;;;;;17.80;100.00;101518.00;5043421;28;20044;-75
2023/09/04 07:03:52;;;;;;;7.53;4.80;;;;;;;18.14;100.00;101512.34;5047705;28;20103;-77
2023/09/04 07:06:20;;;;;;;5.15;4.40;;;;;;;18.47;100.00;101504.03;5058025;28;20052;-76
2023/09/04 07:08:50;;;;;;;4.80;4.05;;;;;;;18.79;100.00;101515.47;5045666;28;20052;-75
2023/09/04 07:11:18;;;;;;;4.60;3.70;;;;;;;18.93;100.00;101496.66;5033388;28;20136;-76
2023/09/04 07:13:45;;;;;;;4.43;3.80;;;;;;;19.14;100.00;101493.53;5058339;28;20052;-74
2023/09/04 07:16:16;;;;;;;5.65;4.45;;;;;;;19.22;100.00;101496.56;5080092;28;20047;-76
2023/09/04 07:19:06;;;;;;;5.22;3.90;;;;;;;19.31;100.00;101492.44;5062702;28;20048;-75
2023/09/04 07:21:36;;;;;;;4.32;3.83;;;;;;;19.28;100.00;101489.00;5054562;28;20072;-76
2023/09/04 07:24:04;;;;;;;4.57;4.07;;;;;;;19.33;100.00;101498.56;5066128;28;20048;-76
2023/09/04 07:26:33;;;;;;;6.30;3.92;;;;;;;19.22;100.00;101493.88;5076885;28;20071;-76
2023/09/04 07:29:01;;;;;;;4.32;3.83;;;;;;;19.19;100.00;101486.94;5053054;28;20040;-75
2023/09/04 07:31:34;;;;;;;;;;;;;;;19.40;100.00;101487.31;5044994;28;20043;-76
2023/09/04 07:34:02;;;;;;;6.57;4.57;;;;;;;19.63;100.00;101501.06;5050401;28;19924;-75
2023/09/04 07:36:30;;;;;;;5.22;3.55;;;;;;;19.80;100.00;101492.72;5050265;28;20624;-75
2023/09/04 07:38:58;;;;;;;7.72;3.80;;;;;;;20.04;100.00;101499.09;5056320;28;20508;-75
2023/09/04 07:41:27;;;;;;;6.78;4.35;;;;;;;19.91;100.00;101474.91;5041782;28;20500;-75
2023/09/04 07:43:55;;;;;;;6.47;3.72;;;;;;;20.13;100.00;101481.50;5036329;28;20056;-76
2023/09/04 07:46:23;;;;;;;5.20;3.90;;;;;;;20.39;100.00;101488.63;5045823;28;20067;-75
2023/09/04 07:48:53;;;;;;;8.50;3.65;;;;;;;20.53;100.00;101493.88;5062304;28;20125;-76
2023/09/04 07:51:23;;;;;;;5.40;4.32;;;;;;;20.74;100.00;101496.88;5061123;28;20122;-74
2023/09/04 07:54:04;;;;;;;5.90;4.30;;;;;;;20.91;100.00;101496.50;5042199;28;20083;-76
2023/09/04 07:56:32;;;;;;;5.40;3.40;;;;;;;21.06;100.00;101493.66;5046712;28;20127;-76
2023/09/04 07:59:10;;;;;;;8.73;7.35;;;;;;;21.22;100.00;101486.22;5050098;28;20083;-74
2023/09/04 08:01:38;;;;;;;4.22;3.60;;;;;;;21.32;100.00;101493.47;5030073;28;20052;-75
2023/09/04 08:04:08;;;;;;;4.15;3.47;;;;;;;21.47;100.00;101482.53;5020840;28;20109;-74
2023/09/04 08:06:37;;;;;;;5.50;3.05;;;;;;;21.67;100.00;101484.56;5063762;28;20048;-75
2023/09/04 08:09:05;;;;;;;4.75;3.40;;;;;;;21.85;96.13;101487.72;5032327;28;20049;-76
2023/09/04 08:11:35;;;;;;;4.78;3.00;;;;;;;21.92;90.70;101486.25;5028836;28;20044;-75
2023/09/04 08:14:03;;;;;;;3.97;3.50;;;;;;;22.04;93.15;101480.78;5052116;28;20052;-75
2023/09/04 08:16:31;;;;;;;5.00;3.20;;;;;;;22.26;87.03;101479.09;5051564;28;20048;-75
2023/09/04 08:18:59;;;;;;;3.80;3.03;;;;;;;22.14;84.94;101480.94;5034605;28;20638;-75
2023/09/04 08:21:29;;;;;;;6.30;3.33;;;;;;;22.01;85.69;101480.19;5058908;28;20486;-75
2023/09/04 08:23:59;;;;;;;5.35;3.28;;;;;;;21.73;87.54;101491.31;5052127;28;20048;-75
2023/09/04 08:26:28;;;;;;;3.78;2.97;;;;;;;21.61;89.02;101483.19;5036589;28;20044;-75
2023/09/04 08:28:57;;;;;;;7.57;2.95;;;;;;;21.60;87.34;101478.78;5040974;28;20052;-75
2023/09/04 08:31:25;;;;;;;5.80;3.20;;;;;;;21.59;86.97;101468.09;5053463;28;20048;-74
2023/09/04 08:33:54;;;;;;;3.10;2.78;;;;;;;21.88;86.91;101482.09;5049215;28;20052;-75
2023/09/04 08:36:31;;;;;;;4.88;2.95;;;;;;;22.22;84.51;101483.03;5047557;28;20071;-75
2023/09/04 08:39:00;;;;;;;4.13;2.75;;;;;;;22.37;79.96;101476.41;5067975;28;20086;-75
2023/09/04 08:41:31;;;;;;;2.88;2.53;;;;;;;22.64;80.65;101484.16;5037242;28;20044;-74
2023/09/04 08:44:04;;;;;;;4.95;2.92;;;;;;;23.19;73.70;101468.88;5044641;28;20060;-75
2023/09/04 08:46:33;;;;;;;4.68;2.85;;;;;;;23.38;70.54;101461.81;5043590;28;20055;-74
2023/09/04 08:49:02;;;;;;;2.88;2.53;;;;;;;23.34;70.07;101464.91;5032362;28;20045;-75
2023/09/04 08:51:32;;;;;;;6.45;4.75;;;;;;;23.14;71.95;101461.13;5036611;28;20376;-75
2023/09/04 08:54:00;;;;;;;6.35;2.58;;;;;;;22.65;71.07;101459.75;5047611;28;20044;-75
2023/09/04 08:56:31;;;;;;;5.25;3.08;;;;;;;22.24;74.22;101464.88;5049671;28;20049;-76
2023/09/04 08:58:59;;;;;;;3.65;2.80;;;;;;;21.93;75.98;101469.94;5027157;28;20045;-75
2023/09/04 09:01:31;;;;;;;3.53;2.70;;;;;;;21.64;78.87;101468.63;5049442;28;20051;-75
2023/09/04 09:04:02;;;;;;;4.32;2.90;;;;;;;21.52;80.70;101472.25;5060149;28;20068;-75
2023/09/04 09:06:33;;;;;;;3.58;2.58;;;;;;;21.41;81.98;101485.69;5042528;28;20128;-75
2023/09/04 09:09:04;;;;;;;5.35;2.90;;;;;;;21.21;82.47;101473.72;5063376;28;20063;-76
2023/09/04 09:11:32;;;;;;;4.97;2.80;;;;;;;21.15;84.54;101469.59;5057019;28;20049;-76
2023/09/04 09:14:00;;;;;;;5.05;2.70;;;;;;;21.20;84.77;101470.16;5065533;28;20044;-75
2023/09/04 09:16:28;;;;;;;5.13;2.65;;;;;;;21.23;82.30;101461.84;5035536;28;20043;-75
2023/09/04 09:18:58;;;;;;;3.20;2.55;;;;;;;21.32;79.63;101474.63;5035230;28;20049;-75
2023/09/04 09:21:29;;;;;;;3.95;2.50;;;;;;;21.38;76.25;101469.75;5037118;28;20060;-76
2023/09/04 09:24:18;;;;;;;5.53;2.42;;;;;;;21.44;76.72;101464.75;5056748;28;20076;-75
2023/09/04 09:26:48;;;;;;;4.13;2.60;;;;;;;21.52;70.66;101464.19;5048504;28;20048;-75
2023/09/04 09:29:18;;;;;;;3.22;2.20;;;;;;;21.64;69.39;101460.53;5047182;28;20056;-75
2023/09/04 09:31:46;;;;;;;3.30;2.15;;;;;;;21.79;68.90;101448.59;5021827;28;20861;-76
2023/09/04 09:34:16;;;;;;;2.90;2.40;;;;;;;21.93;66.01;101448.38;5028731;28;20048;-75
2023/09/04 09:36:44;;;;;;;5.47;2.30;;;;;;;22.01;68.72;101434.31;5052739;28;20048;-75
2023/09/04 09:39:15;;;;;;;4.20;2.53;;;;;;;22.15;69.50;101444.03;5067626;28;20052;-75
2023/09/04 09:41:45;;;;;;;2.92;2.47;;;;;;;22.10;66.52;101408.44;5021202;28;20167;-76
2023/09/04 09:44:13;;;;;;;;;;;;;;;22.46;61.61;101434.34;5063090;28;20041;-74
2023/09/04 09:46:42;;;;;;;5.00;2.28;;;;;;;22.44;62.50;101402.09;5039179;28;19920;-75
2023/09/04 09:49:12;;;;;;;2.45;1.80;;;;;;;22.69;60.80;101426.09;5043863;28;20358;-74
2023/09/04 09:51:40;;;;;;;2.87;2.07;;;;;;;22.80;59.95;101430.66;5058412;28;20044;-75
2023/09/04 09:54:11;;;;;;;3.42;2.40;;;;;;;22.87;58.60;101429.16;5044722;28;20540;-74
2023/09/04 09:56:41;;;;;;;2.78;1.80;;;;;;;22.96;54.10;101414.06;5055340;28;20049;-70
2023/09/04 09:59:09;;;;;;;2.40;1.73;;;;;;;22.98;51.32;101423.72;5058490;28;20064;-70
2023/09/04 10:01:37;;;;;;;3.35;1.88;;;;;;;23.04;51.57;101416.97;5053635;28;20090;-71
2023/09/04 10:04:07;;;;;;;1.85;1.75;;;;;;;23.11;49.77;101412.78;5064458;28;20497;-70
2023/09/04 10:06:39;;;;;;;3.95;2.10;;;;;;;23.21;50.38;101400.22;5043891;28;20500;-71
2023/09/04 10:09:09;;;;;;;3.00;1.80;;;;;;;23.41;49.27;101412.03;5042745;28;20053;-73
2023/09/04 10:11:44;;;;;;;2.13;1.70;;;;;;;23.55;48.02;101408.19;5019860;28;20062;-73
2023/09/04 10:14:15;;;;;;;2.35;1.75;;;;;;;23.62;48.01;101401.25;5027724;28;20051;-71
2023/09/04 10:16:47;;;;;;;2.72;1.48;;;;;;;23.64;45.39;101399.28;5052636;28;20049;-70
2023/09/04 10:19:18;;;;;;;2.47;2.03;;;;;;;23.66;44.32;101406.28;5038688;28;20132;-71
2023/09/04 10:21:53;;;;;;;3.17;1.50;;;;;;;23.72;45.88;101404.91;5036100;28;20059;-71
2023/09/04 10:24:35;;;;;;;3.28;1.50;;;;;;;23.82;45.09;101402.25;5038964;28;20447;-70
2023/09/04 10:27:09;;;;;;;2.80;1.80;;;;;;;23.92;45.13;101392.38;5040797;28;20044;-69
2023/09/04 10:29:46;;;;;;;3.88;1.67;;;;;;;24.03;44.76;101397.69;5057276;28;20036;-71
2023/09/04 10:32:14;;;;;;;1.77;1.55;;;;;;;24.16;45.83;101394.75;5046744;28;20052;-75
2023/09/04 10:34:43;;;;;;;4.57;1.52;;;;;;;24.25;43.36;101389.41;5045832;28;20190;-69
2023/09/04 10:37:12;;;;;;;3.47;2.05;;;;;;;24.29;44.36;101390.00;5058502;28;20049;-72
2023/09/04 10:39:41;;;;;;;2.28;1.50;;;;;;;24.31;43.58;101388.00;5051124;28;20126;-71
2023/09/04 10:42:13;;;;;;;4.40;2.15;;;;;;;24.33;43.35;101389.59;5032567;28;20044;-69
2023/09/04 10:44:45;;;;;;;2.70;1.98;;;;;;;24.35;43.36;101373.22;5026451;28;20044;-69
2023/09/04 10:47:13;;;;;;;4.00;1.80;;;;;;;24.42;43.12;101379.78;5046609;28;20143;-76
2023/09/04 10:49:43;;;;;;;2.30;1.40;;;;;;;24.39;42.79;101377.38;5041915;28;20045;-70
2023/09/04 10:52:12;;;;;;;1.50;1.30;;;;;;;24.44;42.93;101377.78;5030268;28;20044;-76
2023/09/04 10:54:40;;;;;;;1.98;1.60;;;;;;;24.47;42.74;101375.69;5044201;28;20055;-71
2023/09/04 10:57:15;;;;;;;2.45;1.73;;;;;;;24.51;42.95;101378.97;5059672;28;20057;-74
2023/09/04 11:00:06;;;;;;;1.90;1.73;;;;;;;24.60;42.74;101370.00;5058553;28;20514;-69
2023/09/04 11:02:35;;;;;;;2.78;1.75;;;;;;;24.71;42.37;101372.59;5051609;28;20068;-71
2023/09/04 11:05:07;;;;;;;3.20;1.63;;;;;;;24.83;40.83;101360.66;5038754;28;20497;-70
2023/09/04 11:07:34;;;;;;;1.83;1.42;;;;;;;24.89;41.17;101356.50;5061016;28;20080;-72
2023/09/04 11:10:23;;;;;;;2.85;1.75;;;;;;;24.94;40.70;101356.97;5041352;28;20048;-70
2023/09/04 11:12:54;;;;;;;2.17;1.98;;;;;;;24.84;41.39;101342.53;5045758;28;20689;-69
2023/09/04 11:15:22;;;;;;;2.55;1.80;;;;;;;24.93;41.61;101357.09;5060993;28;20132;-71
2023/09/04 11:17:51;;;;;;;2.17;1.70;;;;;;;25.00;40.16;101367.28;5047761;28;20109;-71
2023/09/04 11:20:25;;;;;;;1.52;1.42;;;;;;;24.98;40.55;101358.41;5063892;28;20049;-71
2023/09/04 11:22:56;;;;;;;2.17;1.73;;;;;;;25.08;40.77;101355.69;5051297;28;20102;-71
2023/09/04 11:25:25;;;;;;;2.53;1.40;;;;;;;25.14;40.85;101356.00;5061777;28;20123;-69
2023/09/04 11:27:54;;;;;;;2.17;1.70;;;;;;;25.18;40.50;101351.16;5058060;28;20064;-69
2023/09/04 11:30:22;;;;;;;4.07;1.63;;;;;;;25.14;40.99;101326.19;5053473;28;20052;-69